Latest Coastal Weather Observations for Yeppoon

IDQ60701

Issued at 5:12 am EST Monday 30 May 2016 (issued every 10 minutes, with the page automatically refreshed every 10 minutes)

About coastal observations | Map of coastal stations | Coastal observations for QLD | Marine services | Other Formats
Station Details ID: 033294 Name: YEPPOON THE ESPLANADE Lat: -23.14 Lon: 150.75 Height: 5.5 m
Data from the previous 72 hours. | See also: Recent months at Yeppoon
Date/Time
EST
Temp

°C
Wind Pressure Rain
since 9am
mm
Weather Cloud Vis
km
Sea
Height
m
Swell
Dir
 
Speed
knots
Gust
knots
hPa Trend Height
m
Period
s
Dir
30/05:00am 13.8 WSW 6 7 1020.2 - 0.0 - - - - - - -
30/04:30am 13.5 WSW 6 7 1020.1 - 0.0 - - - - - - -
30/04:00am 13.6 W 5 8 1019.9 - 0.0 - - - - - - -
30/03:30am 13.1 W 6 8 1019.7 - 0.0 - - - - - - -
30/03:00am 13.0 W 8 9 1019.7 - 0.0 - - - - - - -
30/02:30am 13.4 WSW 4 6 1019.7 - 0.0 - - - - - - -
30/02:00am 13.2 W 5 7 1019.6 - 0.0 - - - - - - -
30/01:30am 13.8 W 6 7 1019.6 - 0.0 - - - - - - -
30/01:00am 14.0 W 4 7 1019.7 - 0.0 - - - - - - -
30/12:30am 13.7 W 7 8 1019.7 - 0.0 - - - - - - -
30/12:00am 14.2 W 6 8 1019.9 - 0.0 - - - - - - -
 
Date/Time
EST
Temp

°C
Wind Pressure Rain
since 9am
mm
Weather Cloud Vis
km
Sea
Height
m
Swell
Dir
 
Speed
knots
Gust
knots
hPa Trend Height
m
Period
s
Dir
29/11:30pm 14.8 WSW 6 7 1020.2 - 0.0 - - - - - - -
29/11:00pm 14.8 W 6 8 1020.2 - 0.0 - - - - - - -
29/10:30pm 15.2 WSW 6 7 1020.2 - 0.0 - - - - - - -
29/10:00pm 15.3 WSW 5 7 1020.5 - 0.0 - - - - - - -
29/09:30pm 15.3 W 6 8 1020.5 - 0.0 - - - - - - -
29/09:00pm 15.6 W 4 6 1020.3 - 0.0 - - - - - - -
29/08:30pm 15.9 W 4 5 1019.9 - 0.0 - - - - - - -
29/08:00pm 17.0 SSW 3 4 1019.6 - 0.0 - - - - - - -
29/07:30pm 19.1 N 4 6 1019.5 - 0.0 - - - - - - -
29/07:00pm 20.0 N 7 9 1019.1 - 0.0 - - - - - - -
29/06:30pm 20.2 N 7 9 1018.6 - 0.0 - - - - - - -
29/06:00pm 20.4 N 8 10 1018.5 - 0.0 - - - - - - -
29/05:30pm 21.1 NNE 9 12 1018.2 - 0.0 - - - - - - -
29/05:00pm 21.2 NNE 8 11 1017.8 - 0.0 - - - - - - -
29/04:30pm 21.3 NNE 7 10 1017.7 - 0.0 - - - - - - -
29/04:00pm 21.4 NNE 6 9 1017.5 - 0.0 - - - - - - -
29/03:30pm 21.7 NNE 7 9 1017.2 - 0.0 - - - - - - -
29/03:00pm 21.8 NE 8 11 1017.1 - 0.0 - - - - - - -
29/02:30pm 21.9 NE 8 10 1017.1 - 0.0 - - - - - - -
29/02:00pm 21.6 NE 9 11 1017.1 - 0.0 - - - - - - -
29/01:30pm 21.7 NE 8 10 1017.3 - 0.0 - - - - - - -
29/01:00pm 21.4 ENE 7 9 1017.6 - 0.0 - - - - - - -
29/12:30pm 21.3 ENE 8 9 1017.9 - 0.0 - - - - - - -
29/12:00pm 21.2 ENE 8 10 1018.5 - 0.0 - - - - - - -
29/11:30am 21.0 ENE 9 10 1018.9 - 0.0 - - - - - - -
29/11:00am 20.8 ENE 9 11 1019.3 - 0.0 - - - - - - -
29/10:30am 21.3 E 8 10 1019.5 - 0.0 - - - - - - -
29/10:00am 20.9 SE 5 8 1019.9 - 0.0 - - - - - - -
29/09:30am 20.4 ESE 7 9 1019.9 - 0.0 - - - - - - -
29/09:00am 19.7 S 5 8 1019.7 - 0.0 - - - - - - -
29/08:30am 18.2 S 6 9 1019.6 - 0.0 - - - - - - -
29/08:00am 16.9 SW 5 7 1019.2 - 0.0 - - - - - - -
29/07:30am 16.1 SW 5 7 1018.7 - 0.0 - - - - - - -
29/07:00am 15.2 SW 5 6 1018.3 - 0.0 - - - - - - -
29/06:30am 14.3 WSW 4 5 1018.0 - 0.0 - - - - - - -
29/06:00am 14.5 SW 4 6 1017.7 - 0.0 - - - - - - -
29/05:30am 14.9 SW 4 7 1017.3 - 0.0 - - - - - - -
29/05:00am 14.8 SW 5 7 1016.7 - 0.0 - - - - - - -
29/04:30am 14.8 SW 5 6 1016.5 - 0.0 - - - - - - -
29/04:00am 14.0 WSW 5 7 1016.7 - 0.0 - - - - - - -
29/03:30am 13.1 W 8 9 1016.4 - 0.0 - - - - - - -
29/03:00am 13.4 W 6 8 1016.2 - 0.0 - - - - - - -
29/02:30am 13.8 WSW 5 6 1016.0 - 0.0 - - - - - - -
29/02:00am 13.7 WSW 5 6 1016.0 - 0.0 - - - - - - -
29/01:30am 14.1 WSW 6 8 1016.1 - 0.0 - - - - - - -
29/01:00am 14.8 WSW 6 8 1016.1 - 0.0 - - - - - - -
29/12:30am 14.7 WSW 7 8 1016.0 - 0.0 - - - - - - -
29/12:00am 15.0 W 7 9 1016.0 - 0.0 - - - - - - -
 
Date/Time
EST
Temp

°C
Wind Pressure Rain
since 9am
mm
Weather Cloud Vis
km
Sea
Height
m
Swell
Dir
 
Speed
knots
Gust
knots
hPa Trend Height
m
Period
s
Dir
28/11:30pm 15.7 WSW 6 8 1016.2 - 0.0 - - - - - - -
28/11:00pm 16.3 WSW 7 10 1016.4 - 0.0 - - - - - - -
28/10:30pm 16.1 W 7 9 1016.4 - 0.0 - - - - - - -
28/10:00pm 16.7 WSW 6 8 1016.2 - 0.0 - - - - - - -
28/09:30pm 17.5 WSW 5 9 1016.2 - 0.0 - - - - - - -
28/09:00pm 17.4 W 6 7 1016.0 - 0.0 - - - - - - -
28/08:30pm 17.5 WSW 4 5 1015.9 - 0.0 - - - - - - -
28/08:00pm 18.1 W 4 5 1015.5 - 0.0 - - - - - - -
28/07:30pm 19.0 W 3 3 1015.2 - 0.0 - - - - - - -
28/07:00pm 20.1 WSW 3 4 1014.9 - 0.0 - - - - - - -
28/06:30pm 20.6 WSW 4 5 1014.5 - 0.0 - - - - - - -
28/06:00pm 21.1 SW 1 5 1014.2 - 0.0 - - - - - - -
28/05:30pm 21.8 S 3 5 1013.7 - 0.0 - - - - - - -
28/05:00pm 23.2 ENE 4 5 1013.5 - 0.0 - - - - - - -
28/04:30pm 23.4 N 5 8 1013.2 - 0.0 - - - - - - -
28/04:00pm 23.6 NNE 5 6 1013.0 - 0.0 - - - - - - -
28/03:30pm 23.5 NNE 5 6 1012.9 - 0.0 - - - - - - -
28/03:00pm 23.5 ENE 5 6 1012.9 - 0.0 - - - - - - -
28/02:30pm 23.5 ENE 5 6 1013.1 - 0.0 - - - - - - -
28/02:00pm 23.1 NE 7 8 1013.1 - 0.0 - - - - - - -
28/01:30pm 23.6 NE 6 7 1013.4 - 0.0 - - - - - - -
28/01:00pm 23.6 E 6 9 1013.6 - 0.0 - - - - - - -
28/12:30pm 23.9 NNE 5 7 1014.1 - 0.0 - - - - - - -
28/12:00pm 24.2 NW 3 7 1014.5 - 0.0 - - - - - - -
28/11:30am 24.5 WSW 3 5 1014.8 - 0.0 - - - - - - -
28/11:00am 24.4 WSW 5 7 1015.2 - 0.0 - - - - - - -
28/10:30am 24.0 SSW 4 9 1015.4 - 0.0 - - - - - - -
28/10:00am 23.6 WSW 6 9 1015.8 - 0.0 - - - - - - -
28/09:30am 22.8 WSW 5 8 1016.0 - 0.0 - - - - - - -
28/09:00am 22.1 WSW 5 7 1015.9 - 0.0 - - - - - - -
28/08:30am 21.4 WSW 3 5 1015.7 - 0.0 - - - - - - -
28/08:00am 20.6 W 2 4 1015.6 - 0.0 - - - - - - -
28/07:30am 19.4 WSW 2 5 1015.2 - 0.0 - - - - - - -
28/07:00am 19.0 WSW 7 8 1014.6 - 0.0 - - - - - - -
28/06:30am 18.4 W 3 5 1013.9 - 0.0 - - - - - - -
28/06:00am 18.9 SW 7 9 1013.8 - 0.0 - - - - - - -
28/05:30am 19.5 SW 8 9 1013.4 - 0.0 - - - - - - -
28/05:00am 19.6 WSW 7 9 1013.1 - 0.0 - - - - - - -
28/04:30am 19.7 SW 7 9 1013.1 - 0.0 - - - - - - -
28/04:00am 20.0 SW 8 9 1012.5 - 0.0 - - - - - - -
28/03:30am 20.0 SW 8 9 1012.3 - 0.0 - - - - - - -
28/03:00am 19.8 WSW 7 8 1012.0 - 0.0 - - - - - - -
28/02:30am 20.2 WSW 6 10 1012.3 - 0.0 - - - - - - -
28/02:00am 19.4 SW 4 5 1012.4 - 0.0 - - - - - - -
28/01:30am 20.2 WSW 6 8 1012.3 - 0.0 - - - - - - -
28/01:00am 20.7 SW 3 4 1012.3 - 0.0 - - - - - - -
28/12:30am 21.4 WSW 5 8 1012.4 - 0.0 - - - - - - -
28/12:00am 21.9 W 5 6 1012.6 - 0.0 - - - - - - -
 
Date/Time
EST
Temp

°C
Wind Pressure Rain
since 9am
mm
Weather Cloud Vis
km
Sea
Height
m
Swell
Dir
 
Speed
knots
Gust
knots
hPa Trend Height
m
Period
s
Dir
27/11:30pm 23.1 WSW 6 8 1012.7 - 0.0 - - - - - - -
27/11:00pm 23.4 SW 5 7 1012.8 - 0.0 - - - - - - -
27/10:30pm 24.1 SW 7 10 1012.5 - 0.0 - - - - - - -
27/10:00pm 24.6 SW 7 11 1012.6 - 0.0 - - - - - - -
27/09:30pm 25.1 S 8 11 1012.5 - 0.0 - - - - - - -
27/09:00pm 25.0 SW 6 8 1011.7 - 0.0 - - - - - - -
27/08:30pm 25.6 SW 7 12 1011.4 - 0.0 - - - - - - -
27/08:00pm 26.0 WNW 4 6 1010.2 - 0.0 - - - - - - -
27/07:30pm 26.0 WSW 6 12 1010.1 - 0.0 - - - - - - -
27/07:00pm 25.9 W 5 9 1009.3 - 0.0 - - - - - - -
27/06:30pm 25.9 WSW 5 6 1009.0 - 0.0 - - - - - - -
27/06:00pm 26.4 WSW 4 5 1008.6 - 0.0 - - - - - - -
27/05:30pm 27.2 NW 5 10 1008.2 - 0.0 - - - - - - -
27/05:00pm 27.9 NNW 9 13 1007.9 - 0.0 - - - - - - -
27/04:30pm 27.8 N 10 15 1007.7 - 0.0 - - - - - - -
27/04:00pm 28.5 N 13 17 1007.6 - 0.0 - - - - - - -
27/03:30pm 29.0 NNW 8 17 1007.4 - 0.0 - - - - - - -
27/03:00pm 30.1 NNW 8 12 1007.3 - 0.0 - - - - - - -
27/02:30pm 30.2 NNW 9 12 1007.1 - 0.0 - - - - - - -
27/02:00pm 32.0 WNW 8 13 1007.3 - 0.0 - - - - - - -
27/01:30pm 32.3 WNW 9 14 1007.8 - 0.0 - - - - - - -
27/01:00pm 32.0 W 9 15 1008.2 - 0.0 - - - - - - -
27/12:30pm 30.9 W 10 17 1008.9 - 0.0 - - - - - - -
27/12:00pm 30.6 W 9 16 1009.8 - 0.0 - - - - - - -
27/11:30am 29.9 W 9 17 1010.3 - 0.0 - - - - - - -
27/11:00am 28.5 W 13 19 1010.8 - 0.0 - - - - - - -
27/10:30am 28.5 W 12 17 1011.2 - 0.0 - - - - - - -
27/10:00am 27.3 W 13 21 1011.6 - 0.0 - - - - - - -
27/09:30am 26.3 W 10 15 1011.9 - 0.0 - - - - - - -
27/09:00am 25.1 WSW 9 13 1012.0 - 0.0 - - - - - - -
27/08:30am 24.1 W 5 8 1011.9 - 0.0 - - - - - - -
27/08:00am 22.4 W 4 6 1011.8 - 0.0 - - - - - - -
27/07:30am 20.6 WSW 3 5 1011.9 - 0.0 - - - - - - -
27/07:00am 20.0 WSW 4 6 1011.7 - 0.0 - - - - - - -
27/06:30am 19.5 WSW 4 5 1011.5 - 0.0 - - - - - - -
27/06:00am 19.4 W 4 5 1011.2 - 0.0 - - - - - - -
27/05:30am 18.8 WNW 3 5 1010.9 - 0.0 - - - - - - -

Other Formats:

Comma delimited format used in spreadsheet applications
http://www.bom.gov.au/fwo/IDQ60701/IDQ60701.94373.axf

JavaScript Object Notation format (JSON) in row-major order
http://www.bom.gov.au/fwo/IDQ60701/IDQ60701.94373.json